createdAt,value
2023-03-23T15:58:55.084Z,15.75
2023-03-23T16:01:30.413Z,15.73
2023-03-23T16:04:14.937Z,15.64
2023-03-23T16:07:07.366Z,15.56
2023-03-23T16:09:35.295Z,15.52
2023-03-23T16:12:03.528Z,15.45
2023-03-23T16:14:31.836Z,15.42
2023-03-23T16:16:59.822Z,15.39
2023-03-23T16:19:30.653Z,15.35
2023-03-23T16:21:58.837Z,15.31
2023-03-23T16:24:26.992Z,15.26
2023-03-23T16:26:55.035Z,15.19
2023-03-23T16:29:39.874Z,15.13
2023-03-23T16:32:11.384Z,15.06
2023-03-23T16:34:41.357Z,14.99
2023-03-23T16:37:12.422Z,14.90
2023-03-23T16:39:40.930Z,14.79
2023-03-23T16:42:09.207Z,14.69
2023-03-23T16:44:42.342Z,14.59
2023-03-23T16:47:11.107Z,14.48
2023-03-23T16:49:39.337Z,14.43
2023-03-23T16:52:07.328Z,14.39
2023-03-23T16:54:36.175Z,14.34
2023-03-23T16:57:09.609Z,14.29
2023-03-23T16:59:38.086Z,14.26
2023-03-23T17:02:06.172Z,14.19
2023-03-23T17:04:35.193Z,14.17
2023-03-23T17:07:04.727Z,14.12
2023-03-23T17:09:36.125Z,14.07
2023-03-23T17:12:07.705Z,14.06
2023-03-23T17:14:36.558Z,14.01
2023-03-23T17:17:15.525Z,13.97
2023-03-23T17:19:44.073Z,13.92
2023-03-23T17:22:12.136Z,13.82
2023-03-23T17:24:41.889Z,13.75
2023-03-23T17:27:13.054Z,13.66
2023-03-23T17:29:58.898Z,13.53
2023-03-23T17:32:32.157Z,13.39
2023-03-23T17:35:06.048Z,13.30
2023-03-23T17:37:34.505Z,13.19
2023-03-23T17:40:03.704Z,13.15
2023-03-23T17:42:32.516Z,13.10
2023-03-23T17:45:01.622Z,13.07
2023-03-23T17:47:33.340Z,13.04
2023-03-23T17:50:11.864Z,12.99
2023-03-23T17:52:42.106Z,12.90
2023-03-23T17:55:13.558Z,12.82
2023-03-23T17:57:47.305Z,12.77
2023-03-23T18:00:16.730Z,12.65
2023-03-23T18:02:49.326Z,12.54
2023-03-23T18:05:21.163Z,12.44
2023-03-23T18:07:49.277Z,12.36
2023-03-23T18:10:17.699Z,12.32
2023-03-23T18:12:46.865Z,12.24
2023-03-23T18:15:15.244Z,12.19
2023-03-23T18:17:48.479Z,12.13
2023-03-23T18:20:16.865Z,12.05
2023-03-23T18:22:44.925Z,11.98
2023-03-23T18:25:13.199Z,11.92
2023-03-23T18:27:41.335Z,11.82
2023-03-23T18:30:12.076Z,11.76
2023-03-23T18:32:41.199Z,11.69
2023-03-23T18:35:11.277Z,11.59
2023-03-23T18:37:41.780Z,11.52
2023-03-23T18:40:11.452Z,11.48
2023-03-23T18:42:42.970Z,11.41
2023-03-23T18:45:11.672Z,11.40
2023-03-23T18:47:40.285Z,11.33
2023-03-23T18:50:10.041Z,11.28
2023-03-23T18:52:43.147Z,11.22
2023-03-23T18:55:12.097Z,11.13
2023-03-23T18:57:44.493Z,11.05
2023-03-23T19:02:56.365Z,10.89
2023-03-23T19:05:28.775Z,10.83
2023-03-23T19:07:58.320Z,10.77
2023-03-23T19:10:27.378Z,10.74
2023-03-23T19:12:55.536Z,10.68
2023-03-23T19:15:25.197Z,10.63
2023-03-23T19:17:56.463Z,10.61
2023-03-23T19:21:00.438Z,10.59
2023-03-23T19:23:14.930Z,10.51
2023-03-23T19:25:48.590Z,10.46
2023-03-23T19:30:56.053Z,10.38
2023-03-23T19:33:30.177Z,10.36
2023-03-23T19:36:09.083Z,10.33
2023-03-23T19:38:45.953Z,10.30
2023-03-23T19:41:18.978Z,10.27
2023-03-23T19:44:01.752Z,10.24
2023-03-23T19:46:31.604Z,10.22
2023-03-23T19:49:01.242Z,10.26
2023-03-23T19:51:33.006Z,10.29
2023-03-23T19:54:01.305Z,10.31
2023-03-23T19:56:30.949Z,10.26
2023-03-23T19:59:00.206Z,10.26
2023-03-23T20:01:29.587Z,10.29
2023-03-23T20:04:05.316Z,10.27
2023-03-23T20:06:34.856Z,10.24
2023-03-23T20:09:05.128Z,10.26
2023-03-23T20:11:36.481Z,10.24
2023-03-23T20:14:14.281Z,10.19
2023-03-23T20:16:48.107Z,10.12
2023-03-23T20:19:29.031Z,10.08
2023-03-23T20:21:57.994Z,10.04
2023-03-23T20:24:26.537Z,10.06
2023-03-23T20:26:55.554Z,10.11
2023-03-23T20:29:23.998Z,10.19
2023-03-23T20:31:52.794Z,10.24
2023-03-23T20:34:29.592Z,10.26
2023-03-23T20:36:59.306Z,10.28
2023-03-23T20:39:31.055Z,10.25
2023-03-23T20:42:06.464Z,10.24
2023-03-23T20:44:40.102Z,10.18
2023-03-23T20:47:10.262Z,10.15
2023-03-23T20:49:41.052Z,10.10
2023-03-23T20:52:14.678Z,10.08
2023-03-23T20:54:45.223Z,10.07
2023-03-23T20:57:13.925Z,10.05
2023-03-23T20:59:43.053Z,10.04
2023-03-23T21:02:15.590Z,9.99
2023-03-23T21:04:53.218Z,9.90
2023-03-23T21:07:23.446Z,9.84
2023-03-23T21:09:51.473Z,9.80
2023-03-23T21:12:23.334Z,9.74
2023-03-23T21:14:52.958Z,9.67
2023-03-23T21:17:24.147Z,9.60
2023-03-23T21:19:58.508Z,9.53
2023-03-23T21:22:27.732Z,9.45
2023-03-23T21:24:56.368Z,9.40
2023-03-23T21:27:24.845Z,9.37
2023-03-23T21:29:57.655Z,9.37
2023-03-23T21:32:26.550Z,9.32
2023-03-23T21:34:58.824Z,9.28
2023-03-23T21:37:26.855Z,9.25
2023-03-23T21:40:01.988Z,9.31
2023-03-23T21:42:31.245Z,9.34
2023-03-23T21:45:03.669Z,9.35
2023-03-23T21:47:32.530Z,9.43
2023-03-23T21:50:02.701Z,9.47
2023-03-23T21:52:33.330Z,9.45
2023-03-23T21:55:05.029Z,9.43
2023-03-23T21:57:34.879Z,9.40
2023-03-23T22:00:15.261Z,9.39
2023-03-23T22:02:44.562Z,9.39
2023-03-23T22:05:15.030Z,9.36
2023-03-23T22:07:47.065Z,9.31
2023-03-23T22:10:16.057Z,9.27
2023-03-23T22:12:44.219Z,9.23
2023-03-23T22:15:18.932Z,9.18
2023-03-23T22:17:48.252Z,9.15
2023-03-23T22:20:17.776Z,9.13
2023-03-23T22:22:51.212Z,9.10
2023-03-23T22:25:20.854Z,9.06
2023-03-23T22:27:49.040Z,9.02
2023-03-23T22:30:18.311Z,8.99
2023-03-23T22:32:50.055Z,8.97
2023-03-23T22:35:18.413Z,8.97
2023-03-23T22:37:50.157Z,8.94
2023-03-23T22:40:20.081Z,8.87
2023-03-23T22:42:48.218Z,8.84
2023-03-23T22:45:16.702Z,8.85
2023-03-23T22:47:45.763Z,8.84
2023-03-23T22:50:15.518Z,8.82
2023-03-23T22:52:44.204Z,8.75
2023-03-23T22:55:16.799Z,8.69
2023-03-23T22:57:45.679Z,8.63
2023-03-23T23:00:17.790Z,8.57
2023-03-23T23:02:46.116Z,8.49
2023-03-23T23:05:14.714Z,8.46
2023-03-23T23:07:43.277Z,8.39
2023-03-23T23:10:11.719Z,8.35
2023-03-23T23:12:42.743Z,8.31
2023-03-23T23:15:21.396Z,8.27
2023-03-23T23:17:51.680Z,8.25
2023-03-23T23:20:20.306Z,8.16
2023-03-23T23:22:49.847Z,8.08
2023-03-23T23:25:19.444Z,8.03
2023-03-23T23:27:47.625Z,8.00
2023-03-23T23:30:16.200Z,7.99
2023-03-23T23:32:53.105Z,7.96
2023-03-23T23:35:28.420Z,7.93
2023-03-23T23:37:56.652Z,7.91
2023-03-23T23:40:25.619Z,7.92
2023-03-23T23:42:54.192Z,7.90
2023-03-23T23:45:29.397Z,7.90
2023-03-23T23:48:00.605Z,7.85
2023-03-23T23:50:28.917Z,7.83
2023-03-23T23:52:59.090Z,7.84
2023-03-23T23:55:30.253Z,7.86
2023-03-23T23:57:59.513Z,7.83
